createdAt,value
2023-02-13T00:00:23.669Z,28.57
2023-02-13T00:02:52.756Z,29.80
2023-02-13T00:05:20.551Z,31.80
2023-02-13T00:07:48.222Z,29.23
2023-02-13T00:10:16.044Z,32.17
2023-02-13T00:12:43.709Z,28.97
2023-02-13T00:15:11.764Z,33.33
2023-02-13T00:17:39.499Z,31.10
2023-02-13T00:20:11.439Z,35.13
2023-02-13T00:22:39.417Z,29.13
2023-02-13T00:25:07.983Z,28.70
2023-02-13T00:27:35.652Z,29.60
2023-02-13T00:30:03.347Z,29.40
2023-02-13T00:32:31.752Z,33.53
2023-02-13T00:34:59.441Z,29.37
2023-02-13T00:37:28.595Z,27.67
2023-02-13T00:39:56.214Z,32.13
2023-02-13T00:42:26.555Z,29.50
2023-02-13T00:44:54.476Z,32.73
2023-02-13T00:47:22.506Z,32.90
2023-02-13T00:49:50.133Z,30.10
2023-02-13T00:52:17.818Z,30.13
2023-02-13T00:54:47.742Z,29.93
2023-02-13T00:57:15.520Z,28.10
2023-02-13T00:59:43.190Z,29.47
2023-02-13T01:02:10.837Z,31.17
2023-02-13T01:04:38.698Z,33.17
2023-02-13T01:07:06.391Z,30.53
2023-02-13T01:09:34.186Z,33.30
2023-02-13T01:12:03.207Z,32.63
2023-02-13T01:14:30.944Z,29.50
2023-02-13T01:16:58.619Z,31.63
2023-02-13T01:19:26.464Z,32.27
2023-02-13T01:21:54.480Z,34.50
2023-02-13T01:24:22.138Z,29.97
2023-02-13T01:26:49.842Z,30.17
2023-02-13T01:29:18.967Z,32.17
2023-02-13T01:31:46.837Z,32.50
2023-02-13T01:34:14.626Z,33.03
2023-02-13T01:36:42.269Z,32.23
2023-02-13T01:39:13.195Z,32.47
2023-02-13T01:41:41.067Z,28.43
2023-02-13T01:44:42.142Z,32.63
2023-02-13T01:47:12.006Z,32.67
2023-02-13T01:49:40.536Z,30.37
2023-02-13T01:52:09.244Z,33.80
2023-02-13T01:54:37.370Z,31.53
2023-02-13T01:57:06.890Z,29.60
2023-02-13T01:59:36.250Z,35.00
2023-02-13T02:02:04.157Z,31.57
2023-02-13T02:04:35.946Z,34.37
2023-02-13T02:07:05.686Z,34.60
2023-02-13T02:09:36.656Z,29.87
2023-02-13T02:12:08.311Z,33.27
2023-02-13T02:14:36.330Z,33.40
2023-02-13T02:17:04.165Z,31.60
2023-02-13T02:19:38.083Z,32.87
2023-02-13T02:22:33.341Z,31.70
2023-02-13T02:25:15.398Z,30.00
2023-02-13T02:28:12.272Z,32.73
2023-02-13T02:31:21.539Z,35.83
2023-02-13T02:34:00.136Z,32.07
2023-02-13T02:36:36.500Z,32.90
2023-02-13T02:39:15.056Z,33.30
2023-02-13T02:41:58.984Z,35.73
2023-02-13T02:44:34.268Z,32.67
2023-02-13T02:47:29.008Z,32.50
2023-02-13T02:50:13.487Z,33.50
2023-02-13T02:52:47.352Z,38.23
2023-02-13T02:55:22.320Z,32.40
2023-02-13T02:58:11.236Z,33.03
2023-02-13T03:00:59.800Z,37.30
2023-02-13T03:03:45.900Z,34.60
2023-02-13T03:06:17.798Z,31.57
2023-02-13T03:09:05.183Z,37.73
2023-02-13T03:11:50.830Z,30.27
2023-02-13T03:14:21.749Z,33.67
2023-02-13T03:17:07.386Z,35.60
2023-02-13T03:20:02.800Z,35.83
2023-02-13T03:22:40.117Z,36.10
2023-02-13T03:25:13.235Z,34.97
2023-02-13T03:28:05.197Z,34.57
2023-02-13T03:30:42.039Z,33.20
2023-02-13T03:33:20.697Z,33.97
2023-02-13T03:36:08.970Z,33.83
2023-02-13T03:38:43.648Z,36.07
2023-02-13T03:41:21.486Z,33.43
2023-02-13T03:43:57.508Z,34.57
2023-02-13T03:46:26.386Z,37.53
2023-02-13T03:49:12.323Z,44.47
2023-02-13T03:51:43.774Z,36.33
2023-02-13T03:54:19.544Z,33.53
2023-02-13T03:57:05.905Z,36.40
2023-02-13T03:59:35.563Z,35.57
2023-02-13T04:02:08.320Z,36.07
2023-02-13T04:04:41.687Z,36.67
2023-02-13T04:07:11.979Z,34.83
2023-02-13T04:09:42.677Z,34.20
2023-02-13T04:12:15.616Z,34.97
2023-02-13T04:14:48.805Z,34.50
2023-02-13T04:17:20.659Z,35.67
2023-02-13T04:19:48.777Z,33.70
2023-02-13T04:22:16.552Z,35.00
2023-02-13T04:24:45.766Z,34.87
2023-02-13T04:27:15.082Z,33.80
2023-02-13T04:29:42.945Z,32.87
2023-02-13T04:32:11.121Z,34.83
2023-02-13T04:34:39.245Z,36.37
2023-02-13T04:37:06.998Z,35.70
2023-02-13T04:39:34.732Z,41.53
2023-02-13T04:42:03.836Z,39.33
2023-02-13T04:44:31.548Z,32.90
2023-02-13T04:46:59.243Z,34.43
2023-02-13T04:49:26.981Z,36.70
2023-02-13T04:51:54.679Z,37.77
2023-02-13T04:54:22.309Z,37.67
2023-02-13T04:56:49.934Z,36.83
2023-02-13T04:59:18.995Z,38.67
2023-02-13T05:01:46.868Z,37.13
2023-02-13T05:04:16.320Z,34.73
2023-02-13T05:06:44.225Z,35.57
2023-02-13T05:09:12.116Z,38.13
2023-02-13T05:11:39.791Z,38.10
2023-02-13T05:14:07.547Z,41.83
2023-02-13T05:16:36.599Z,39.00
2023-02-13T05:19:04.381Z,39.00
2023-02-13T05:21:49.789Z,36.87
2023-02-13T05:24:20.137Z,43.63
2023-02-13T05:26:48.262Z,39.20
2023-02-13T05:29:22.551Z,34.37
2023-02-13T05:31:52.915Z,38.47
2023-02-13T05:34:21.127Z,41.77
2023-02-13T05:36:48.857Z,40.80
2023-02-13T05:39:16.738Z,39.27
2023-02-13T05:41:44.833Z,38.87
2023-02-13T05:44:12.722Z,35.20
2023-02-13T05:46:41.759Z,42.90
2023-02-13T05:49:11.710Z,38.20
2023-02-13T05:51:39.489Z,39.37
2023-02-13T05:54:07.192Z,38.97
2023-02-13T05:56:34.901Z,42.97
2023-02-13T05:59:02.644Z,39.13
2023-02-13T06:01:30.352Z,37.27
2023-02-13T06:03:59.393Z,39.53
2023-02-13T06:06:29.525Z,39.57
2023-02-13T06:08:57.194Z,39.23
2023-02-13T06:11:24.832Z,39.70
2023-02-13T06:13:52.566Z,43.10
2023-02-13T06:16:20.488Z,38.37
2023-02-13T06:18:48.236Z,38.47
2023-02-13T06:21:15.899Z,39.90
2023-02-13T06:23:45.160Z,36.27
2023-02-13T06:26:12.858Z,38.43
2023-02-13T06:28:40.603Z,38.27
2023-02-13T06:31:08.418Z,39.53
2023-02-13T06:33:36.225Z,39.73
2023-02-13T06:36:04.526Z,42.90
2023-02-13T06:38:32.298Z,41.43
2023-02-13T06:41:03.053Z,38.13
2023-02-13T06:43:30.761Z,42.23
2023-02-13T06:45:58.492Z,40.37
2023-02-13T06:48:26.398Z,39.50
2023-02-13T06:50:54.242Z,40.07
2023-02-13T06:53:24.947Z,40.13
2023-02-13T06:55:53.997Z,41.60
2023-02-13T06:58:23.877Z,40.07
2023-02-13T07:00:51.833Z,38.77
2023-02-13T07:03:19.644Z,43.30
2023-02-13T07:05:47.493Z,42.47
2023-02-13T07:08:15.173Z,45.97
2023-02-13T07:10:43.156Z,38.27
2023-02-13T07:13:11.321Z,44.97
2023-02-13T07:15:40.580Z,46.73
2023-02-13T07:18:08.267Z,38.67
2023-02-13T07:20:36.270Z,39.10
2023-02-13T07:23:06.195Z,39.77
2023-02-13T07:25:33.917Z,40.53
2023-02-13T07:28:05.307Z,45.43
2023-02-13T07:30:34.122Z,42.63
2023-02-13T07:33:04.143Z,44.87
2023-02-13T07:35:32.457Z,46.63
2023-02-13T07:38:00.545Z,44.90
2023-02-13T07:40:28.416Z,43.60
2023-02-13T07:42:57.028Z,45.43
2023-02-13T07:45:24.770Z,45.80
2023-02-13T07:47:52.853Z,46.53
2023-02-13T07:50:21.970Z,42.13
2023-02-13T07:52:54.668Z,49.27
2023-02-13T07:55:22.458Z,41.93
2023-02-13T07:57:50.579Z,45.93
2023-02-13T08:00:20.074Z,48.10
2023-02-13T08:02:48.095Z,51.87
2023-02-13T08:05:16.118Z,51.03
2023-02-13T08:07:45.151Z,41.73
2023-02-13T08:10:31.582Z,42.33
2023-02-13T08:12:59.460Z,43.87
2023-02-13T08:15:27.404Z,46.07
2023-02-13T08:17:55.052Z,46.43
2023-02-13T08:20:23.980Z,49.20
2023-02-13T08:22:53.082Z,42.60
2023-02-13T08:25:21.052Z,38.30
2023-02-13T08:27:48.797Z,41.97
2023-02-13T08:30:17.029Z,38.17
2023-02-13T08:32:53.806Z,48.90
2023-02-13T08:35:22.715Z,49.60
2023-02-13T08:37:50.516Z,43.67
2023-02-13T08:40:19.963Z,39.17
2023-02-13T08:42:47.672Z,39.80
2023-02-13T08:45:15.419Z,37.10
2023-02-13T08:47:43.142Z,42.60
2023-02-13T08:50:11.608Z,42.77
2023-02-13T08:52:39.266Z,37.93
2023-02-13T08:55:07.472Z,38.00
2023-02-13T08:57:36.550Z,35.87
2023-02-13T09:00:05.978Z,36.07
2023-02-13T09:02:33.691Z,35.10
2023-02-13T09:05:01.492Z,35.40
2023-02-13T09:07:29.234Z,32.10
2023-02-13T09:09:56.972Z,39.93
2023-02-13T09:12:24.676Z,43.53
2023-02-13T09:14:53.746Z,34.80
2023-02-13T09:17:21.383Z,34.43
2023-02-13T09:19:49.087Z,32.60
2023-02-13T09:22:17.327Z,34.13
2023-02-13T09:24:45.046Z,32.27
2023-02-13T09:27:12.786Z,35.27
2023-02-13T09:29:40.486Z,33.70
2023-02-13T09:32:09.665Z,33.17
2023-02-13T09:34:37.453Z,35.90
2023-02-13T09:37:05.155Z,35.57
2023-02-13T09:39:32.864Z,31.67
2023-02-13T09:42:02.233Z,35.67
2023-02-13T09:44:36.017Z,32.27
2023-02-13T09:47:06.891Z,33.77
2023-02-13T09:49:39.948Z,33.53
2023-02-13T09:52:09.751Z,34.37
2023-02-13T09:54:37.484Z,30.47
2023-02-13T09:57:09.520Z,35.67
2023-02-13T09:59:47.109Z,33.43
2023-02-13T10:02:35.773Z,32.53
2023-02-13T10:05:12.383Z,32.17
2023-02-13T10:07:45.333Z,30.53
2023-02-13T10:10:21.239Z,31.97
2023-02-13T10:12:57.908Z,31.93
2023-02-13T10:15:31.588Z,31.10
2023-02-13T10:18:02.715Z,35.23
2023-02-13T10:20:34.016Z,32.10
2023-02-13T10:23:06.895Z,33.83
2023-02-13T10:25:41.639Z,30.27
2023-02-13T10:28:13.895Z,35.33
2023-02-13T10:30:49.389Z,31.07
2023-02-13T10:33:20.209Z,34.17
2023-02-13T10:35:53.493Z,31.63
2023-02-13T10:38:23.573Z,33.80
2023-02-13T10:41:06.984Z,37.83
2023-02-13T10:43:40.929Z,32.13
2023-02-13T10:46:15.842Z,34.50
2023-02-13T10:48:53.736Z,32.00
2023-02-13T10:51:28.906Z,34.67
2023-02-13T10:54:12.943Z,28.30
2023-02-13T10:56:45.174Z,27.77
2023-02-13T10:59:24.887Z,26.17
2023-02-13T11:01:55.735Z,28.87
2023-02-13T11:04:23.899Z,27.60
2023-02-13T11:06:57.028Z,30.57
2023-02-13T11:09:25.263Z,31.03
2023-02-13T11:11:53.959Z,31.13
2023-02-13T11:14:23.298Z,24.33
2023-02-13T11:16:55.243Z,23.10
2023-02-13T11:19:26.636Z,61.67
2023-02-13T11:22:00.427Z,22.97
2023-02-13T11:24:29.405Z,20.23
2023-02-13T11:27:01.209Z,22.07
2023-02-13T11:29:30.551Z,23.00
2023-02-13T11:32:19.589Z,22.37
2023-02-13T11:34:47.826Z,17.67
2023-02-13T11:37:20.156Z,18.40
2023-02-13T11:39:51.197Z,18.33
2023-02-13T11:42:25.175Z,19.47
2023-02-13T11:44:54.746Z,19.83
2023-02-13T11:47:40.688Z,20.30
2023-02-13T11:50:22.415Z,19.23
2023-02-13T11:53:11.792Z,19.70
2023-02-13T11:55:40.518Z,21.73
2023-02-13T11:58:25.153Z,20.57
2023-02-13T12:01:09.957Z,22.50
2023-02-13T12:03:38.881Z,23.83
2023-02-13T12:06:12.902Z,20.30
2023-02-13T12:08:43.818Z,27.03
2023-02-13T12:11:21.927Z,20.60
2023-02-13T12:13:50.299Z,21.80
2023-02-13T12:16:23.676Z,22.13
2023-02-13T12:18:54.203Z,20.83
2023-02-13T12:21:35.167Z,20.83
2023-02-13T12:24:07.695Z,22.13
2023-02-13T12:26:39.784Z,21.83
2023-02-13T12:29:18.424Z,22.43
2023-02-13T12:32:01.416Z,20.57
2023-02-13T12:34:51.206Z,23.37
2023-02-13T12:37:28.593Z,24.67
2023-02-13T12:40:13.264Z,23.17
2023-02-13T12:42:49.236Z,23.33
2023-02-13T12:45:25.287Z,26.07
2023-02-13T12:48:18.826Z,27.23
2023-02-13T12:50:55.487Z,31.20
2023-02-13T12:53:36.688Z,26.57
2023-02-13T12:56:28.920Z,24.13
2023-02-13T12:59:10.208Z,22.23
2023-02-13T13:01:59.051Z,22.70
2023-02-13T13:04:37.086Z,23.27
2023-02-13T13:07:44.872Z,24.87
2023-02-13T13:10:22.301Z,31.77
2023-02-13T13:12:56.897Z,26.83
2023-02-13T13:15:33.996Z,26.73
2023-02-13T13:18:10.651Z,26.67
2023-02-13T13:20:53.838Z,37.27
2023-02-13T13:23:24.050Z,73.07
2023-02-13T13:26:01.503Z,36.07
2023-02-13T13:28:34.413Z,26.40
2023-02-13T13:31:03.001Z,27.13
2023-02-13T13:33:31.499Z,27.63
2023-02-13T13:36:04.848Z,28.23
2023-02-13T13:38:42.196Z,27.33
2023-02-13T13:41:13.567Z,22.70
2023-02-13T13:43:55.946Z,24.67
2023-02-13T13:46:32.241Z,24.33
2023-02-13T13:49:10.762Z,27.40
2023-02-13T13:51:38.889Z,28.40
2023-02-13T13:54:21.423Z,32.87
2023-02-13T13:57:12.615Z,28.37
2023-02-13T14:00:14.635Z,28.77
2023-02-13T14:02:46.688Z,27.53
2023-02-13T14:05:30.512Z,28.43
2023-02-13T14:07:59.803Z,27.07
2023-02-13T14:11:06.966Z,27.90
2023-02-13T14:13:36.815Z,29.23
2023-02-13T14:16:05.812Z,28.40
2023-02-13T14:18:35.664Z,26.03
2023-02-13T14:21:04.394Z,31.33
2023-02-13T14:23:35.798Z,28.60
2023-02-13T14:26:36.977Z,28.93
2023-02-13T14:29:29.462Z,28.33
2023-02-13T14:32:03.437Z,30.67
2023-02-13T14:34:34.272Z,33.73
2023-02-13T14:37:35.269Z,30.83
2023-02-13T14:40:53.656Z,31.50
2023-02-13T14:43:38.974Z,32.63
2023-02-13T14:46:26.624Z,32.00
2023-02-13T14:48:58.341Z,31.47
2023-02-13T14:51:33.032Z,34.70
2023-02-13T14:54:06.010Z,30.03
2023-02-13T14:56:34.077Z,30.00
2023-02-13T14:59:11.081Z,34.57
2023-02-13T15:01:45.164Z,32.03
2023-02-13T15:04:17.831Z,30.10
2023-02-13T15:06:47.266Z,30.23
2023-02-13T15:09:27.650Z,30.43
2023-02-13T15:11:55.372Z,28.60
2023-02-13T15:14:26.790Z,31.60
2023-02-13T15:16:58.845Z,33.47
2023-02-13T15:19:28.259Z,34.83
2023-02-13T15:21:59.287Z,30.50
2023-02-13T15:24:27.358Z,33.80
2023-02-13T15:27:00.790Z,28.73
2023-02-13T15:29:38.021Z,30.90
2023-02-13T15:32:22.626Z,35.67
2023-02-13T15:34:50.492Z,30.07
2023-02-13T15:37:24.642Z,35.60
2023-02-13T15:39:52.362Z,33.13
2023-02-13T15:42:20.363Z,30.23
2023-02-13T15:44:50.272Z,32.00
2023-02-13T15:47:20.316Z,33.30
2023-02-13T15:49:50.315Z,33.63
2023-02-13T15:52:21.714Z,31.77
2023-02-13T15:54:53.303Z,31.73
2023-02-13T15:57:21.622Z,30.83
2023-02-13T15:59:49.882Z,33.47
2023-02-13T16:02:21.141Z,32.63
2023-02-13T16:04:50.772Z,34.50
2023-02-13T16:07:18.574Z,33.70
2023-02-13T16:09:46.315Z,32.53
2023-02-13T16:12:24.295Z,29.63
2023-02-13T16:14:54.836Z,31.00
2023-02-13T16:17:29.890Z,34.60
2023-02-13T16:20:01.008Z,37.87
2023-02-13T16:22:34.848Z,58.83
2023-02-13T16:25:11.016Z,49.80
2023-02-13T16:27:43.412Z,45.53
2023-02-13T16:30:35.872Z,41.63
2023-02-13T16:33:24.098Z,38.20
2023-02-13T16:35:52.618Z,36.60
2023-02-13T16:38:29.472Z,35.17
2023-02-13T16:40:59.002Z,52.47
2023-02-13T16:43:44.186Z,45.50
2023-02-13T16:46:26.330Z,54.37
2023-02-13T16:49:06.850Z,59.10
2023-02-13T16:51:37.908Z,62.07
2023-02-13T16:54:07.109Z,37.87
2023-02-13T16:56:42.006Z,38.23
2023-02-13T16:59:29.670Z,47.27
2023-02-13T17:02:19.097Z,60.40
2023-02-13T17:04:49.524Z,46.83
2023-02-13T17:07:20.552Z,45.57
2023-02-13T17:09:54.271Z,39.40
2023-02-13T17:12:22.729Z,38.20
2023-02-13T17:14:52.017Z,41.50
2023-02-13T17:17:20.893Z,44.03
2023-02-13T17:19:48.995Z,47.33
2023-02-13T17:22:24.160Z,44.17
2023-02-13T17:24:51.813Z,48.23
2023-02-13T17:27:21.239Z,44.23
2023-02-13T17:29:51.612Z,43.77
2023-02-13T17:32:20.930Z,49.63
2023-02-13T17:34:48.725Z,43.23
2023-02-13T17:37:19.920Z,39.93
2023-02-13T17:39:48.321Z,39.83
2023-02-13T17:42:22.149Z,41.77
2023-02-13T17:44:51.504Z,37.90
2023-02-13T17:47:19.710Z,40.53
2023-02-13T17:49:47.814Z,41.07
2023-02-13T17:52:17.665Z,38.90
2023-02-13T17:54:46.093Z,41.30
2023-02-13T17:57:14.578Z,41.80
2023-02-13T17:59:42.516Z,39.57
2023-02-13T18:02:21.935Z,42.27
2023-02-13T18:04:50.529Z,40.37
2023-02-13T18:07:20.931Z,41.77
2023-02-13T18:09:48.651Z,41.80
2023-02-13T18:12:17.846Z,41.50
2023-02-13T18:14:45.838Z,45.23
2023-02-13T18:17:13.728Z,45.03
2023-02-13T18:19:42.876Z,45.10
2023-02-13T18:22:11.077Z,43.43
2023-02-13T18:24:41.076Z,50.73
2023-02-13T18:27:11.195Z,44.30
2023-02-13T18:29:39.471Z,41.83
2023-02-13T18:32:10.230Z,49.80
2023-02-13T18:34:38.694Z,48.53
2023-02-13T18:37:08.304Z,45.17
2023-02-13T18:39:36.042Z,47.50
2023-02-13T18:42:03.767Z,42.77
2023-02-13T18:44:32.011Z,45.57
2023-02-13T18:47:00.265Z,56.83
2023-02-13T18:49:28.034Z,60.70
2023-02-13T18:51:55.731Z,61.67
2023-02-13T18:54:24.916Z,55.03
2023-02-13T18:56:52.597Z,55.50
2023-02-13T18:59:20.323Z,54.10
2023-02-13T19:01:48.063Z,51.23
2023-02-13T19:04:15.880Z,56.07
2023-02-13T19:06:45.464Z,51.70
2023-02-13T19:09:13.270Z,58.50
2023-02-13T19:11:42.748Z,129.70
2023-02-13T19:14:13.588Z,145.73
2023-02-13T19:16:41.980Z,168.00
2023-02-13T19:19:09.931Z,93.07
2023-02-13T19:21:38.859Z,59.30
2023-02-13T19:24:09.274Z,65.13
2023-02-13T19:26:37.022Z,60.30
2023-02-13T19:29:06.047Z,59.47
2023-02-13T19:31:34.201Z,47.27
2023-02-13T19:34:02.168Z,50.27
2023-02-13T19:36:30.826Z,43.77
2023-02-13T19:38:59.894Z,40.43
2023-02-13T19:41:29.005Z,39.97
2023-02-13T19:43:56.684Z,42.20
2023-02-13T19:46:27.391Z,44.10
2023-02-13T19:48:55.636Z,41.93
2023-02-13T19:51:25.246Z,41.73
2023-02-13T19:53:57.053Z,40.33
2023-02-13T19:56:26.304Z,41.53
2023-02-13T19:58:55.267Z,44.73
2023-02-13T20:01:25.910Z,40.17
2023-02-13T20:03:54.074Z,43.67
2023-02-13T20:06:23.049Z,45.10
2023-02-13T20:08:51.446Z,40.83
2023-02-13T20:11:20.528Z,42.77
2023-02-13T20:13:48.559Z,41.17
2023-02-13T20:16:17.621Z,39.87
2023-02-13T20:18:46.663Z,44.70
2023-02-13T20:21:16.051Z,45.17
2023-02-13T20:23:44.663Z,42.70
2023-02-13T20:26:15.147Z,47.10
2023-02-13T20:28:43.776Z,44.97
2023-02-13T20:31:12.050Z,44.53
2023-02-13T20:33:40.453Z,46.30
2023-02-13T20:36:14.674Z,46.33
2023-02-13T20:38:42.796Z,47.40
2023-02-13T20:41:11.161Z,45.13
2023-02-13T20:43:39.021Z,43.20
2023-02-13T20:46:07.179Z,49.43
2023-02-13T20:48:36.260Z,48.77
2023-02-13T20:51:05.959Z,45.47
2023-02-13T20:53:35.315Z,52.33
2023-02-13T20:56:04.968Z,51.37
2023-02-13T20:58:32.817Z,52.60
2023-02-13T21:01:01.053Z,55.30
2023-02-13T21:03:29.011Z,53.03
2023-02-13T21:05:56.740Z,47.43
2023-02-13T21:08:24.396Z,48.73
2023-02-13T21:10:53.439Z,56.03
2023-02-13T21:13:21.086Z,51.47
2023-02-13T21:15:50.634Z,55.73
2023-02-13T21:18:20.972Z,48.50
2023-02-13T21:20:49.821Z,46.83
2023-02-13T21:23:17.604Z,48.37
2023-02-13T21:25:45.415Z,50.57
2023-02-13T21:28:14.524Z,53.50
2023-02-13T21:30:43.043Z,51.23
2023-02-13T21:33:10.799Z,47.10
2023-02-13T21:35:38.519Z,50.70
2023-02-13T21:38:06.218Z,51.60
2023-02-13T21:40:33.980Z,52.00
2023-02-13T21:43:01.722Z,54.77
2023-02-13T21:45:30.856Z,50.93
2023-02-13T21:47:58.552Z,48.60
2023-02-13T21:50:26.291Z,50.43
2023-02-13T21:52:53.971Z,48.73
2023-02-13T21:55:21.651Z,50.87
2023-02-13T21:57:49.737Z,49.83
2023-02-13T22:00:18.200Z,50.60
2023-02-13T22:02:47.218Z,53.40
2023-02-13T22:05:14.963Z,53.23
2023-02-13T22:07:56.593Z,54.00
2023-02-13T22:10:24.277Z,52.03
2023-02-13T22:12:53.286Z,55.97
2023-02-13T22:15:21.673Z,53.30
2023-02-13T22:17:50.703Z,56.73
2023-02-13T22:20:18.840Z,56.40
2023-02-13T22:22:46.736Z,60.27
2023-02-13T22:25:14.612Z,62.17
2023-02-13T22:27:46.875Z,61.40
2023-02-13T22:30:15.413Z,58.20
2023-02-13T22:32:43.179Z,64.17
2023-02-13T22:35:12.310Z,63.27
2023-02-13T22:37:40.072Z,57.87
2023-02-13T22:40:08.626Z,62.87
2023-02-13T22:42:36.353Z,63.63
2023-02-13T22:45:04.241Z,59.70
2023-02-13T22:47:31.972Z,65.87
2023-02-13T22:49:59.617Z,58.47
2023-02-13T22:52:28.643Z,66.83
2023-02-13T22:54:56.335Z,68.80
2023-02-13T22:57:24.103Z,66.60
2023-02-13T22:59:51.746Z,68.37
2023-02-13T23:02:19.446Z,61.97
2023-02-13T23:04:48.358Z,63.03
2023-02-13T23:07:18.344Z,59.70
2023-02-13T23:09:47.415Z,60.47
2023-02-13T23:12:33.042Z,65.00
2023-02-13T23:15:00.996Z,59.73
2023-02-13T23:17:46.149Z,59.37
2023-02-13T23:20:13.980Z,61.70
2023-02-13T23:22:41.665Z,63.47
2023-02-13T23:25:10.785Z,60.40
2023-02-13T23:27:39.137Z,61.83
2023-02-13T23:30:08.634Z,62.57
2023-02-13T23:32:36.431Z,62.30
2023-02-13T23:35:04.182Z,60.60
2023-02-13T23:37:31.881Z,59.77
2023-02-13T23:39:59.551Z,67.03
2023-02-13T23:42:28.583Z,62.67
2023-02-13T23:44:56.304Z,67.03
2023-02-13T23:47:24.020Z,63.33
2023-02-13T23:49:51.649Z,69.20
2023-02-13T23:52:19.275Z,68.23
2023-02-13T23:54:47.008Z,63.53
2023-02-13T23:57:15.038Z,62.07
2023-02-13T23:59:44.037Z,70.67
